Time;durP1;ratioP1;P1;durP2;ratioP2;P2;SDS_P1;SDS_P2;PMS_P1;PMS_P2;Temp;Humidity;BMP_temperature;BMP_pressure;BME280_temperature;BME280_humidity;BME280_pressure;Samples;Min_cycle;Max_cycle;Signal;HPM_P1;HPM_P2
2021/09/07 00:00:48;;;;;;;33.47;31.17;;;16.60;82.40;;;;;;5049430;28;20455;-71
2021/09/07 00:03:15;;;;;;;32.60;30.60;;;16.60;82.20;;;;;;5040152;28;20483;-71
2021/09/07 00:05:43;;;;;;;33.20;31.00;;;16.50;82.40;;;;;;5048804;28;20980;-71
2021/09/07 00:08:10;;;;;;;35.30;32.70;;;16.40;82.70;;;;;;5040107;28;20474;-71
2021/09/07 00:10:37;;;;;;;32.70;30.30;;;16.40;82.80;;;;;;5055624;28;20465;-71
2021/09/07 00:13:04;;;;;;;33.67;31.40;;;16.40;82.90;;;;;;5041059;28;20978;-70
2021/09/07 00:15:31;;;;;;;32.23;30.20;;;16.40;82.90;;;;;;5046670;28;20455;-71
2021/09/07 00:17:58;;;;;;;32.03;29.73;;;16.40;82.90;;;;;;5038653;28;20917;-71
2021/09/07 00:20:25;;;;;;;31.67;29.57;;;16.30;82.80;;;;;;5046943;28;20461;-71
2021/09/07 00:22:53;;;;;;;33.53;31.33;;;16.30;82.80;;;;;;5033915;28;20485;-71
2021/09/07 00:25:20;;;;;;;32.30;30.10;;;16.30;82.60;;;;;;5047708;28;20729;-71
2021/09/07 00:27:47;;;;;;;33.63;31.27;;;16.30;82.70;;;;;;5043843;28;20451;-71
2021/09/07 00:30:14;;;;;;;33.77;31.30;;;16.30;82.80;;;;;;5043609;28;20503;-72
2021/09/07 00:32:41;;;;;;;33.30;31.10;;;16.20;83.10;;;;;;5037084;28;20468;-71
2021/09/07 00:35:11;;;;;;;33.73;31.43;;;16.20;83.20;;;;;;5042971;28;20549;-72
2021/09/07 00:37:39;;;;;;;32.70;30.50;;;16.10;83.20;;;;;;5041532;28;20470;-71
2021/09/07 00:40:09;;;;;;;33.07;30.70;;;16.10;83.30;;;;;;5038828;28;20537;-72
2021/09/07 00:42:37;;;;;;;34.30;31.80;;;16.10;83.50;;;;;;5040608;28;20945;-71
2021/09/07 00:45:05;;;;;;;34.07;31.27;;;16.00;83.50;;;;;;5044206;28;20520;-72
2021/09/07 00:47:32;;;;;;;33.27;30.97;;;16.00;83.70;;;;;;5035885;28;20479;-72
2021/09/07 00:49:59;;;;;;;33.87;31.27;;;15.90;84.10;;;;;;5045327;28;20558;-71
2021/09/07 00:52:26;;;;;;;33.10;30.80;;;15.90;84.30;;;;;;5043526;28;20447;-72
2021/09/07 00:54:54;;;;;;;33.83;31.63;;;15.80;84.50;;;;;;5051970;28;20481;-72
2021/09/07 00:57:25;;;;;;;32.93;30.63;;;15.80;84.70;;;;;;5045224;28;20475;-72
2021/09/07 00:59:53;;;;;;;33.50;31.20;;;15.80;84.60;;;;;;5047752;28;20463;-72
2021/09/07 01:02:20;;;;;;;34.03;31.53;;;15.90;84.30;;;;;;5039345;28;21447;-71
2021/09/07 01:04:47;;;;;;;33.13;31.03;;;15.80;84.20;;;;;;5047855;28;20444;-72
2021/09/07 01:07:14;;;;;;;32.67;30.30;;;15.80;84.40;;;;;;5035664;28;20481;-72
2021/09/07 01:09:42;;;;;;;33.43;31.23;;;15.70;84.70;;;;;;5042391;28;20463;-72
2021/09/07 01:12:10;;;;;;;33.30;31.00;;;15.70;84.90;;;;;;5046516;28;20479;-72
2021/09/07 01:14:39;;;;;;;33.90;31.50;;;15.70;84.90;;;;;;5040203;28;20472;-72
2021/09/07 01:17:11;;;;;;;32.90;30.63;;;15.60;85.00;;;;;;5037416;28;21022;-72
2021/09/07 01:19:38;;;;;;;33.57;31.30;;;15.60;84.90;;;;;;5042806;28;21018;-72
2021/09/07 01:22:05;;;;;;;33.00;30.70;;;15.60;85.00;;;;;;5044645;28;21056;-72
2021/09/07 01:24:35;;;;;;;32.93;30.73;;;15.60;85.00;;;;;;5054145;28;21047;-72
2021/09/07 01:27:05;;;;;;;33.30;31.03;;;15.50;85.10;;;;;;5038125;28;20497;-72
2021/09/07 01:29:33;;;;;;;33.07;30.80;;;15.50;85.30;;;;;;5044189;28;20485;-72
2021/09/07 01:32:00;;;;;;;32.10;30.07;;;15.60;85.00;;;;;;5049992;28;20455;-71
2021/09/07 01:34:27;;;;;;;33.43;30.77;;;15.50;85.00;;;;;;5049999;28;20465;-71
2021/09/07 01:36:55;;;;;;;32.67;30.50;;;15.50;85.30;;;;;;5044152;28;21008;-71
2021/09/07 01:39:22;;;;;;;32.13;29.93;;;15.50;85.30;;;;;;5049009;28;20992;-71
2021/09/07 01:41:51;;;;;;;33.17;30.77;;;15.50;84.80;;;;;;5049598;28;20672;-71
2021/09/07 01:44:18;;;;;;;32.40;30.30;;;15.50;85.00;;;;;;5046984;28;20458;-71
2021/09/07 01:46:46;;;;;;;33.53;31.23;;;15.50;85.00;;;;;;5044227;28;20870;-70
2021/09/07 01:49:13;;;;;;;32.80;30.53;;;15.40;85.00;;;;;;5039150;28;20474;-70
2021/09/07 01:51:41;;;;;;;32.97;30.70;;;15.30;85.50;;;;;;5049095;28;20451;-71
2021/09/07 01:54:09;;;;;;;33.47;31.17;;;15.30;85.50;;;;;;5046380;28;20471;-71
2021/09/07 01:56:38;;;;;;;33.10;30.60;;;15.30;85.50;;;;;;5041953;28;20483;-70
2021/09/07 01:59:06;;;;;;;32.00;29.70;;;15.20;85.80;;;;;;5046719;28;20568;-71
2021/09/07 02:01:33;;;;;;;32.03;29.93;;;15.20;85.80;;;;;;5051386;28;21852;-71
2021/09/07 02:04:00;;;;;;;33.53;31.13;;;15.20;85.80;;;;;;5040945;28;20820;-70
2021/09/07 02:06:28;;;;;;;32.67;30.23;;;15.20;85.60;;;;;;5046855;28;20454;-71
2021/09/07 02:08:55;;;;;;;35.40;33.00;;;15.20;85.50;;;;;;5041660;28;20561;-71
2021/09/07 02:11:22;;;;;;;33.10;30.80;;;15.10;85.80;;;;;;5048680;28;20832;-71
2021/09/07 02:13:48;;;;;;;35.03;32.53;;;15.10;86.00;;;;;;5043948;28;20816;-71
2021/09/07 02:16:17;;;;;;;32.33;30.13;;;15.10;86.00;;;;;;5047172;28;20459;-71
2021/09/07 02:18:44;;;;;;;33.33;30.80;;;15.20;85.50;;;;;;5044311;28;21107;-71
2021/09/07 02:21:10;;;;;;;33.50;31.20;;;15.30;85.20;;;;;;5045007;28;20489;-71
2021/09/07 02:23:37;;;;;;;38.13;35.40;;;15.20;85.50;;;;;;5045723;28;20477;-70
2021/09/07 02:26:04;;;;;;;33.07;30.70;;;15.10;85.80;;;;;;5046778;28;20832;-70
2021/09/07 02:28:31;;;;;;;32.03;29.97;;;15.10;85.70;;;;;;5039619;28;20477;-71
2021/09/07 02:30:58;;;;;;;32.97;30.60;;;15.10;85.90;;;;;;5052341;28;20461;-71
2021/09/07 02:33:26;;;;;;;34.40;31.50;;;15.00;86.30;;;;;;5040451;28;20455;-71
2021/09/07 02:35:53;;;;;;;34.33;31.83;;;14.90;86.40;;;;;;5046070;28;20467;-71
2021/09/07 02:38:20;;;;;;;33.13;30.70;;;14.90;86.60;;;;;;5042541;28;20600;-71
2021/09/07 02:40:47;;;;;;;33.20;31.20;;;14.90;86.90;;;;;;5043707;28;20824;-71
2021/09/07 02:43:14;;;;;;;31.63;29.63;;;14.90;86.90;;;;;;5046924;28;20455;-70
2021/09/07 02:45:40;;;;;;;32.50;30.40;;;14.90;86.90;;;;;;5046066;28;20463;-71
2021/09/07 02:48:07;;;;;;;31.97;29.70;;;14.90;86.70;;;;;;5040547;28;20461;-71
2021/09/07 02:50:36;;;;;;;32.60;30.40;;;14.90;86.70;;;;;;5044218;28;20451;-71
2021/09/07 02:53:03;;;;;;;32.30;30.00;;;14.90;86.50;;;;;;5047738;28;20464;-70
2021/09/07 02:55:30;;;;;;;33.37;31.07;;;14.90;86.30;;;;;;5055997;28;20848;-71
2021/09/07 02:57:56;;;;;;;33.90;31.30;;;14.80;86.50;;;;;;5041044;28;20474;-71
2021/09/07 03:00:23;;;;;;;32.37;30.17;;;14.80;86.50;;;;;;5046182;28;20463;-71
2021/09/07 03:02:50;;;;;;;33.03;30.73;;;14.80;86.40;;;;;;5053610;28;20471;-71
2021/09/07 03:05:17;;;;;;;35.77;33.13;;;14.70;86.50;;;;;;5051327;28;20455;-71
2021/09/07 03:07:45;;;;;;;37.20;34.70;;;14.70;86.40;;;;;;5040022;28;20465;-71
2021/09/07 03:10:12;;;;;;;40.70;37.93;;;14.70;86.40;;;;;;5052173;28;20509;-70
2021/09/07 03:12:39;;;;;;;32.90;30.60;;;14.70;86.60;;;;;;5048976;28;20907;-70
2021/09/07 03:15:08;;;;;;;33.50;30.97;;;14.70;86.70;;;;;;5048058;28;20698;-70
2021/09/07 03:17:34;;;;;;;34.07;31.67;;;14.60;86.90;;;;;;5046396;28;20566;-70
2021/09/07 03:20:01;;;;;;;32.63;30.30;;;14.60;87.10;;;;;;5042001;28;20479;-70
2021/09/07 03:22:29;;;;;;;32.97;30.83;;;14.50;87.40;;;;;;5048185;28;20470;-70
2021/09/07 03:24:58;;;;;;;34.00;31.50;;;14.60;87.30;;;;;;5047398;28;20450;-70
2021/09/07 03:27:25;;;;;;;36.23;33.63;;;14.70;86.80;;;;;;5040613;28;20454;-70
2021/09/07 03:29:51;;;;;;;34.00;31.60;;;14.70;86.70;;;;;;5046923;28;20474;-70
2021/09/07 03:32:18;;;;;;;35.73;33.13;;;14.60;86.70;;;;;;5047707;28;20459;-70
2021/09/07 03:34:45;;;;;;;36.00;33.40;;;14.70;86.40;;;;;;5043838;28;20762;-70
2021/09/07 03:37:12;;;;;;;34.50;32.03;;;14.70;86.50;;;;;;5038577;28;20471;-70
2021/09/07 03:39:39;;;;;;;35.17;32.20;;;14.50;87.00;;;;;;5047184;28;20606;-70
2021/09/07 03:42:07;;;;;;;35.33;33.00;;;14.50;87.30;;;;;;5047893;28;20459;-70
2021/09/07 03:44:34;;;;;;;35.73;33.03;;;14.40;87.40;;;;;;5035018;28;20474;-70
2021/09/07 03:47:00;;;;;;;36.23;33.53;;;14.40;87.60;;;;;;5044105;28;20833;-72
2021/09/07 03:49:27;;;;;;;36.53;33.83;;;14.30;87.90;;;;;;5041208;28;20475;-70
2021/09/07 03:51:54;;;;;;;34.37;31.77;;;14.30;88.10;;;;;;5057300;28;20461;-70
2021/09/07 03:54:21;;;;;;;35.20;32.50;;;14.30;88.10;;;;;;5046353;28;20467;-71
2021/09/07 03:56:47;;;;;;;38.57;35.77;;;14.30;87.90;;;;;;5042381;28;20897;-70
2021/09/07 03:59:16;;;;;;;35.07;32.47;;;14.30;88.00;;;;;;5039639;28;21004;-71
2021/09/07 04:01:43;;;;;;;35.93;33.60;;;14.30;88.00;;;;;;5043027;28;20969;-70
2021/09/07 04:04:10;;;;;;;34.57;31.97;;;14.30;88.20;;;;;;5043990;28;20967;-70
2021/09/07 04:06:38;;;;;;;36.93;34.03;;;14.30;88.20;;;;;;5047616;28;20478;-71
2021/09/07 04:09:05;;;;;;;37.10;34.20;;;14.30;88.20;;;;;;5048664;28;20467;-71
2021/09/07 04:11:32;;;;;;;38.37;35.70;;;14.30;88.20;;;;;;5040202;28;20456;-71
2021/09/07 04:13:58;;;;;;;36.87;34.03;;;14.40;87.90;;;;;;5045517;28;20454;-71
2021/09/07 04:16:27;;;;;;;36.73;34.13;;;14.40;87.60;;;;;;5047110;28;20554;-71
2021/09/07 04:18:54;;;;;;;38.17;35.57;;;14.40;87.60;;;;;;5050015;28;20514;-70
2021/09/07 04:21:20;;;;;;;34.97;32.57;;;14.40;87.60;;;;;;5045603;28;20447;-71
2021/09/07 04:23:47;;;;;;;35.33;32.63;;;14.40;87.50;;;;;;5044664;28;20458;-70
2021/09/07 04:26:14;;;;;;;36.43;33.70;;;14.40;87.40;;;;;;5041173;28;20467;-70
2021/09/07 04:28:41;;;;;;;34.30;31.73;;;14.40;87.30;;;;;;5038025;28;20471;-70
2021/09/07 04:31:08;;;;;;;36.10;33.60;;;14.50;87.00;;;;;;5045438;28;20526;-70
2021/09/07 04:33:36;;;;;;;34.20;31.80;;;14.50;87.00;;;;;;5042489;28;20539;-70
2021/09/07 04:36:04;;;;;;;36.23;33.83;;;14.50;86.90;;;;;;5053826;28;20447;-70
2021/09/07 04:38:31;;;;;;;36.07;33.70;;;14.50;87.10;;;;;;5039232;28;20989;-70
2021/09/07 04:40:59;;;;;;;34.90;32.40;;;14.50;87.20;;;;;;5041372;28;20960;-70
2021/09/07 04:43:26;;;;;;;37.37;34.37;;;14.40;87.50;;;;;;5041780;28;21051;-70
2021/09/07 04:45:52;;;;;;;36.00;33.37;;;14.40;87.70;;;;;;5041827;28;20463;-70
2021/09/07 04:48:19;;;;;;;34.90;32.40;;;14.40;87.80;;;;;;5039009;28;20581;-70
2021/09/07 04:50:48;;;;;;;35.63;33.10;;;14.40;87.80;;;;;;5044032;28;20459;-71
2021/09/07 04:53:15;;;;;;;35.27;32.63;;;14.50;87.70;;;;;;5043667;28;20463;-70
2021/09/07 04:55:42;;;;;;;35.63;33.20;;;14.50;87.30;;;;;;5046623;28;20562;-71
2021/09/07 04:58:09;;;;;;;34.23;31.83;;;14.50;87.20;;;;;;5043177;28;20475;-71
2021/09/07 05:00:36;;;;;;;34.00;31.43;;;14.50;86.90;;;;;;5040777;28;20818;-71
2021/09/07 05:03:03;;;;;;;34.47;32.00;;;14.60;86.40;;;;;;5036324;28;21836;-71
2021/09/07 05:05:30;;;;;;;38.13;35.40;;;14.60;86.40;;;;;;5044717;28;20756;-71
2021/09/07 05:07:58;;;;;;;35.17;32.77;;;14.60;86.40;;;;;;5044179;28;20538;-71
2021/09/07 05:10:26;;;;;;;35.97;33.33;;;14.60;86.50;;;;;;5041438;28;20860;-70
2021/09/07 05:12:53;;;;;;;37.20;34.30;;;14.70;86.50;;;;;;5040109;28;20447;-70
2021/09/07 05:15:22;;;;;;;36.33;33.50;;;14.70;86.20;;;;;;5037852;28;20455;-71
2021/09/07 05:17:49;;;;;;;39.30;36.50;;;14.70;86.30;;;;;;5046634;28;20475;-71
2021/09/07 05:20:16;;;;;;;33.83;31.40;;;14.70;86.10;;;;;;5052367;28;20525;-71
2021/09/07 05:22:45;;;;;;;34.03;31.63;;;14.80;85.90;;;;;;5045014;28;20949;-69
2021/09/07 05:25:13;;;;;;;34.70;32.33;;;14.90;85.70;;;;;;5044620;28;20459;-70
2021/09/07 05:27:40;;;;;;;36.63;33.87;;;14.80;85.80;;;;;;5046399;28;20480;-71
2021/09/07 05:30:09;;;;;;;38.43;35.50;;;14.80;86.20;;;;;;5045806;28;20520;-71
2021/09/07 05:32:37;;;;;;;38.17;35.10;;;14.90;86.20;;;;;;5048275;28;20981;-70
2021/09/07 05:35:04;;;;;;;37.43;34.63;;;14.90;86.30;;;;;;5051422;28;20462;-72
2021/09/07 05:37:37;;;;;;;39.37;36.50;;;15.00;87.00;;;;;;5035020;28;20477;-70
2021/09/07 05:40:05;;;;;;;38.03;35.10;;;15.10;87.50;;;;;;5046961;28;20574;-70
2021/09/07 05:42:33;;;;;;;35.07;32.47;;;15.10;87.20;;;;;;5039319;28;20458;-71
2021/09/07 05:45:00;;;;;;;37.97;35.43;;;15.20;86.30;;;;;;5040104;28;21027;-70
2021/09/07 05:47:27;;;;;;;38.63;35.80;;;15.30;85.60;;;;;;5043848;28;20454;-70
2021/09/07 05:49:54;;;;;;;38.87;36.17;;;15.40;85.10;;;;;;5035641;28;20490;-73
2021/09/07 05:52:21;;;;;;;36.20;33.53;;;15.50;84.50;;;;;;5035979;28;20736;-70
2021/09/07 05:54:48;;;;;;;35.63;32.93;;;15.50;84.50;;;;;;5038913;28;20886;-70
2021/09/07 05:57:15;;;;;;;38.23;35.63;;;15.60;84.30;;;;;;5038497;28;20551;-70
2021/09/07 05:59:43;;;;;;;35.80;33.20;;;15.60;84.40;;;;;;5035344;28;20457;-70
2021/09/07 06:02:12;;;;;;;36.20;33.60;;;15.90;84.00;;;;;;5038201;28;20674;-71
2021/09/07 06:04:39;;;;;;;36.67;33.90;;;15.90;83.70;;;;;;5041270;28;20465;-70
2021/09/07 06:07:06;;;;;;;38.10;35.30;;;15.90;83.90;;;;;;5049129;28;20554;-70
2021/09/07 06:09:33;;;;;;;39.27;36.37;;;16.00;83.70;;;;;;5040100;28;20477;-71
2021/09/07 06:12:02;;;;;;;36.13;33.53;;;16.00;83.50;;;;;;5043051;28;20550;-73
2021/09/07 06:14:31;;;;;;;38.60;36.00;;;16.10;82.90;;;;;;5046407;28;20451;-73
2021/09/07 06:17:00;;;;;;;40.30;37.40;;;16.20;82.80;;;;;;5040182;28;20542;-70
2021/09/07 06:19:28;;;;;;;38.85;36.30;;;16.20;82.80;;;;;;5048664;28;20545;-70
2021/09/07 06:21:58;;;;;;;38.73;35.60;;;16.30;82.40;;;;;;5050996;28;20272;-71
2021/09/07 06:24:24;;;;;;;36.83;34.17;;;16.50;81.50;;;;;;5053203;28;20473;-70
2021/09/07 06:26:51;;;;;;;41.10;38.20;;;16.60;80.60;;;;;;5050908;28;20553;-70
2021/09/07 06:29:18;;;;;;;38.27;35.07;;;16.70;80.50;;;;;;5051985;28;20477;-70
2021/09/07 06:31:45;;;;;;;38.03;35.07;;;16.70;80.40;;;;;;5039155;28;20462;-71
2021/09/07 06:34:14;;;;;;;36.77;34.17;;;16.70;80.40;;;;;;5048723;28;20828;-70
2021/09/07 06:36:40;;;;;;;38.33;35.57;;;16.80;80.60;;;;;;5048412;28;20965;-71
2021/09/07 06:39:09;;;;;;;38.63;36.03;;;16.90;80.20;;;;;;5045144;28;20496;-70
2021/09/07 06:41:36;;;;;;;38.10;35.30;;;17.10;79.80;;;;;;5045151;28;20490;-70
2021/09/07 06:44:03;;;;;;;38.20;35.70;;;17.20;79.10;;;;;;5045283;28;20880;-70
2021/09/07 06:46:30;;;;;;;40.43;37.40;;;17.30;78.70;;;;;;5041246;28;20460;-70
2021/09/07 06:48:57;;;;;;;41.60;38.40;;;17.40;78.50;;;;;;5037051;28;20528;-70
2021/09/07 06:51:25;;;;;;;39.30;36.57;;;17.50;78.50;;;;;;5045413;28;20460;-70
2021/09/07 06:53:52;;;;;;;37.43;34.83;;;17.50;78.40;;;;;;5037934;28;20553;-71
2021/09/07 06:56:19;;;;;;;38.83;36.10;;;17.60;78.30;;;;;;5054030;28;20453;-71
2021/09/07 06:58:46;;;;;;;38.80;36.17;;;17.80;78.10;;;;;;5045587;28;20486;-71
2021/09/07 07:01:13;;;;;;;36.80;34.20;;;17.90;77.80;;;;;;5051970;28;20650;-71
2021/09/07 07:03:40;;;;;;;38.50;35.90;;;18.10;77.00;;;;;;5044379;28;20476;-71
2021/09/07 07:06:07;;;;;;;38.13;35.53;;;18.20;77.00;;;;;;5051906;28;20459;-71
2021/09/07 07:08:35;;;;;;;38.57;35.33;;;18.30;76.40;;;;;;5043608;28;20467;-71
2021/09/07 07:11:02;;;;;;;37.53;35.00;;;18.40;76.00;;;;;;5046697;28;20459;-71
2021/09/07 07:13:29;;;;;;;41.03;38.03;;;18.60;76.10;;;;;;5047478;28;20466;-70
2021/09/07 07:15:56;;;;;;;41.87;39.17;;;18.70;75.60;;;;;;5045917;28;20455;-70
2021/09/07 07:18:22;;;;;;;36.63;33.67;;;18.80;75.30;;;;;;5049108;28;21008;-70
2021/09/07 07:20:49;;;;;;;38.90;35.90;;;19.00;75.30;;;;;;5050215;28;20788;-71
2021/09/07 07:23:16;;;;;;;36.90;34.10;;;19.20;75.00;;;;;;5042690;28;20569;-71
2021/09/07 07:25:44;;;;;;;38.60;35.93;;;19.30;74.30;;;;;;5048537;28;20466;-71
2021/09/07 07:28:11;;;;;;;38.03;35.33;;;19.50;74.00;;;;;;5049844;28;20898;-71
2021/09/07 07:30:38;;;;;;;38.07;35.17;;;19.60;73.20;;;;;;5046248;28;20463;-71
2021/09/07 07:33:05;;;;;;;41.30;38.20;;;19.90;72.30;;;;;;5045733;28;20466;-70
2021/09/07 07:35:32;;;;;;;39.93;36.93;;;19.90;71.90;;;;;;5045624;28;21071;-70
2021/09/07 07:37:59;;;;;;;38.73;35.20;;;20.00;71.80;;;;;;5039759;28;20538;-71
2021/09/07 07:40:25;;;;;;;40.80;38.13;;;20.10;71.40;;;;;;5037833;28;20471;-71
2021/09/07 07:42:54;;;;;;;38.67;35.97;;;20.30;70.60;;;;;;5042718;28;20477;-71
2021/09/07 07:45:21;;;;;;;38.27;35.63;;;20.50;70.30;;;;;;5041602;28;20448;-70
2021/09/07 07:47:48;;;;;;;40.70;37.50;;;20.60;69.60;;;;;;5046116;28;20455;-70
2021/09/07 07:50:15;;;;;;;40.70;37.80;;;20.80;68.90;;;;;;5044829;28;20797;-71
2021/09/07 07:52:42;;;;;;;40.03;37.17;;;20.90;68.70;;;;;;5045279;28;21127;-71
2021/09/07 07:55:09;;;;;;;41.60;38.60;;;21.00;68.00;;;;;;5047256;28;20477;-71
2021/09/07 07:57:36;;;;;;;40.30;37.10;;;21.10;67.60;;;;;;5040474;28;20543;-71
2021/09/07 08:00:05;;;;;;;40.77;37.50;;;21.10;67.70;;;;;;5037905;28;20488;-71
2021/09/07 08:02:32;;;;;;;41.27;38.50;;;21.10;67.70;;;;;;5035440;28;20460;-71
2021/09/07 08:04:59;;;;;;;40.17;37.30;;;21.30;67.40;;;;;;5040014;28;20456;-72
2021/09/07 08:07:26;;;;;;;42.10;38.97;;;21.40;67.00;;;;;;5034960;28;20452;-71
2021/09/07 08:09:53;;;;;;;40.70;37.63;;;21.50;66.70;;;;;;5038413;28;20595;-72
2021/09/07 08:12:22;;;;;;;39.03;36.07;;;21.70;66.50;;;;;;5040845;28;21036;-71
2021/09/07 08:14:53;;;;;;;38.83;36.03;;;21.90;66.00;;;;;;5040175;28;20474;-71
2021/09/07 08:17:21;;;;;;;41.10;38.20;;;22.00;65.60;;;;;;5037208;28;20513;-72
2021/09/07 08:19:48;;;;;;;41.10;37.43;;;22.00;65.60;;;;;;5046658;28;20475;-72
2021/09/07 08:22:16;;;;;;;42.37;39.27;;;22.10;65.30;;;;;;5038544;28;20485;-71
2021/09/07 08:24:45;;;;;;;41.17;38.07;;;22.10;65.20;;;;;;5037674;28;20509;-71
2021/09/07 08:27:15;;;;;;;38.90;36.17;;;22.10;64.70;;;;;;5044318;28;20562;-70
2021/09/07 08:29:42;;;;;;;41.57;38.53;;;21.90;64.70;;;;;;5038891;28;20542;-70
2021/09/07 08:32:09;;;;;;;39.77;37.07;;;22.00;64.60;;;;;;5040319;28;20550;-71
2021/09/07 08:34:37;;;;;;;40.17;37.50;;;22.10;64.50;;;;;;5037482;28;20968;-70
2021/09/07 08:37:05;;;;;;;40.80;37.90;;;22.20;64.10;;;;;;5037614;28;20455;-70
2021/09/07 08:39:32;;;;;;;36.90;34.30;;;22.40;63.80;;;;;;5037812;28;20485;-71
2021/09/07 08:42:04;;;;;;;38.40;35.47;;;22.50;63.30;;;;;;5037197;28;20471;-71
2021/09/07 08:44:34;;;;;;;40.93;38.13;;;22.70;63.20;;;;;;5040194;28;20537;-71
2021/09/07 08:47:01;;;;;;;41.90;39.00;;;22.80;62.60;;;;;;5042098;28;20609;-70
2021/09/07 08:49:27;;;;;;;41.90;38.70;;;22.80;61.90;;;;;;5031103;28;20467;-70
2021/09/07 08:51:56;;;;;;;41.97;38.73;;;22.80;62.20;;;;;;5043627;28;20462;-70
2021/09/07 08:54:23;;;;;;;39.97;37.07;;;23.00;62.10;;;;;;5046957;28;20469;-70
2021/09/07 08:56:50;;;;;;;41.80;38.40;;;22.90;62.60;;;;;;5045460;28;21091;-70
2021/09/07 08:59:17;;;;;;;41.73;38.80;;;22.90;62.60;;;;;;5044389;28;20478;-70
2021/09/07 09:01:51;;;;;;;40.70;37.90;;;23.00;62.50;;;;;;5047816;28;20463;-70
2021/09/07 09:04:28;;;;;;;41.00;38.00;;;23.10;62.40;;;;;;5046476;28;20463;-70
2021/09/07 09:06:57;;;;;;;41.37;38.37;;;23.30;61.90;;;;;;5039812;28;20465;-70
2021/09/07 09:09:36;;;;;;;42.20;39.30;;;23.40;61.40;;;;;;5033898;28;20506;-70
2021/09/07 09:12:05;;;;;;;40.40;37.20;;;23.50;60.70;;;;;;5047740;28;20558;-70
2021/09/07 09:14:33;;;;;;;41.20;38.30;;;23.40;61.40;;;;;;5044766;28;20542;-70
2021/09/07 09:17:00;;;;;;;40.90;37.80;;;23.50;61.20;;;;;;5038830;28;20455;-70
2021/09/07 09:19:27;;;;;;;42.47;39.37;;;23.70;60.60;;;;;;5040986;28;20481;-70
2021/09/07 09:21:54;;;;;;;45.17;41.43;;;23.70;60.40;;;;;;5046429;28;20489;-70
2021/09/07 09:24:24;;;;;;;39.47;36.57;;;23.50;60.90;;;;;;5048581;28;20454;-70
2021/09/07 09:26:58;;;;;;;39.93;36.77;;;23.40;61.10;;;;;;5040879;28;21099;-70
2021/09/07 09:29:27;;;;;;;40.77;38.00;;;23.40;61.90;;;;;;5034202;28;20588;-70
2021/09/07 09:31:57;;;;;;;40.20;37.30;;;23.40;61.90;;;;;;5048744;28;20891;-70
2021/09/07 09:34:26;;;;;;;39.90;36.90;;;23.60;61.00;;;;;;5042949;28;20462;-70
2021/09/07 09:37:02;;;;;;;42.17;39.33;;;23.60;61.50;;;;;;5052046;28;20457;-70
2021/09/07 09:39:42;;;;;;;40.00;37.30;;;23.60;61.20;;;;;;5045598;28;20620;-70
2021/09/07 09:42:10;;;;;;;39.13;36.27;;;23.70;60.90;;;;;;5049355;28;20584;-70
2021/09/07 09:44:38;;;;;;;42.67;39.20;;;23.80;60.70;;;;;;5042558;28;20545;-70
2021/09/07 09:47:05;;;;;;;43.40;40.30;;;23.90;60.40;;;;;;5050194;28;20463;-70
2021/09/07 09:49:33;;;;;;;42.40;39.47;;;23.90;60.70;;;;;;5039564;28;20920;-69
2021/09/07 09:52:03;;;;;;;40.90;37.90;;;23.90;60.70;;;;;;5052076;28;20990;-70
2021/09/07 09:54:32;;;;;;;40.27;36.90;;;23.90;59.90;;;;;;5038427;28;20840;-70
2021/09/07 09:57:02;;;;;;;39.37;36.47;;;23.90;60.20;;;;;;5052507;28;20968;-70
2021/09/07 09:59:30;;;;;;;40.23;37.33;;;23.80;59.60;;;;;;5046606;28;20625;-70
2021/09/07 10:01:58;;;;;;;38.90;35.93;;;23.80;60.20;;;;;;5046427;28;20502;-70
2021/09/07 10:04:26;;;;;;;39.53;36.63;;;24.00;59.70;;;;;;5048403;28;20461;-70
2021/09/07 10:06:53;;;;;;;39.07;36.37;;;24.00;59.30;;;;;;5048794;28;20508;-70
2021/09/07 10:09:22;;;;;;;40.13;37.20;;;24.10;59.90;;;;;;5046128;28;20469;-70
2021/09/07 10:11:52;;;;;;;40.50;37.60;;;24.40;59.50;;;;;;5048928;28;20503;-70
2021/09/07 10:14:26;;;;;;;38.50;36.00;;;24.40;59.10;;;;;;5049572;28;20534;-70
2021/09/07 10:17:22;;;;;;;40.57;37.57;;;24.60;58.90;;;;;;5045862;28;20454;-70
2021/09/07 10:19:58;;;;;;;40.53;37.20;;;24.80;57.80;;;;;;5050728;28;20562;-70
2021/09/07 10:23:10;;;;;;;41.33;38.43;;;24.90;57.40;;;;;;5049730;28;20458;-70
2021/09/07 10:25:52;;;;;;;40.90;38.10;;;24.90;56.60;;;;;;5047612;28;20542;-70
2021/09/07 10:28:37;;;;;;;39.83;37.07;;;24.70;57.50;;;;;;5042285;28;20485;-70
2021/09/07 10:31:08;;;;;;;39.40;36.30;;;24.80;57.60;;;;;;5049492;28;20454;-70
2021/09/07 10:33:37;;;;;;;43.80;41.10;;;24.90;57.10;;;;;;5043208;28;20451;-70
2021/09/07 10:36:12;;;;;;;40.20;37.50;;;24.90;56.60;;;;;;5052424;28;20546;-70
2021/09/07 10:38:42;;;;;;;43.20;40.20;;;25.00;56.30;;;;;;5048838;28;20470;-70
2021/09/07 10:41:11;;;;;;;40.23;37.53;;;25.10;55.60;;;;;;5046156;28;21019;-70
2021/09/07 10:43:52;;;;;;;43.43;40.40;;;25.20;55.40;;;;;;5042218;28;20992;-71
2021/09/07 10:46:42;;;;;;;42.80;39.90;;;25.30;54.50;;;;;;5044933;28;21134;-71
2021/09/07 10:49:24;;;;;;;42.80;39.93;;;25.20;54.10;;;;;;5047352;28;20471;-71
2021/09/07 10:52:14;;;;;;;43.10;40.20;;;25.20;54.00;;;;;;5045255;28;20770;-71
2021/09/07 10:54:47;;;;;;;40.70;38.20;;;25.50;53.70;;;;;;5050489;28;20600;-72
2021/09/07 10:57:46;;;;;;;39.20;36.30;;;25.60;52.50;;;;;;5048587;28;20455;-72
2021/09/07 11:00:38;;;;;;;38.80;36.30;;;25.70;51.90;;;;;;5046475;28;20483;-72
2021/09/07 11:03:09;;;;;;;42.37;39.50;;;25.80;51.10;;;;;;5046815;28;20455;-73
2021/09/07 11:05:41;;;;;;;38.87;36.30;;;25.70;51.70;;;;;;5049004;28;20443;-73
2021/09/07 11:08:09;;;;;;;40.40;37.77;;;25.60;52.50;;;;;;5041252;28;20524;-73
2021/09/07 11:10:38;;;;;;;38.63;36.23;;;25.60;52.70;;;;;;5050191;28;20439;-73
2021/09/07 11:13:07;;;;;;;39.83;37.33;;;25.70;52.50;;;;;;5040272;28;20467;-74
2021/09/07 11:15:35;;;;;;;41.67;39.00;;;25.80;52.10;;;;;;5039625;28;20463;-74
2021/09/07 11:18:06;;;;;;;38.37;35.87;;;25.90;51.80;;;;;;5039649;28;20451;-74
2021/09/07 11:20:36;;;;;;;41.67;38.67;;;26.10;52.10;;;;;;5041264;28;20478;-73
2021/09/07 11:23:12;;;;;;;40.93;38.00;;;26.10;51.70;;;;;;5039763;28;20467;-74
2021/09/07 11:25:41;;;;;;;41.47;38.87;;;26.20;50.60;;;;;;5037476;28;20608;-74
2021/09/07 11:28:10;;;;;;;37.10;34.70;;;26.30;50.20;;;;;;5039733;28;20463;-74
2021/09/07 11:30:39;;;;;;;40.43;38.00;;;26.30;50.00;;;;;;5035552;28;20463;-75
2021/09/07 11:33:08;;;;;;;38.40;36.00;;;26.30;49.90;;;;;;5038935;28;20463;-73
2021/09/07 11:35:39;;;;;;;39.73;37.00;;;26.40;49.30;;;;;;5044169;28;20495;-74
2021/09/07 11:38:08;;;;;;;37.37;34.87;;;26.40;48.60;;;;;;5037506;28;20456;-74
2021/09/07 11:40:41;;;;;;;38.20;35.67;;;26.40;49.20;;;;;;5039286;28;20479;-74
2021/09/07 11:43:08;;;;;;;36.87;34.40;;;26.50;48.70;;;;;;5037344;28;20470;-74
2021/09/07 11:45:36;;;;;;;38.80;36.23;;;26.50;49.10;;;;;;5039648;28;20898;-73
2021/09/07 11:48:08;;;;;;;39.70;37.10;;;26.60;48.20;;;;;;5040909;28;20459;-74
2021/09/07 11:50:38;;;;;;;36.60;34.10;;;26.70;47.30;;;;;;5039756;28;20458;-73
2021/09/07 11:53:07;;;;;;;39.00;36.40;;;26.60;47.30;;;;;;5038673;28;20653;-74
2021/09/07 11:55:48;;;;;;;36.30;33.90;;;26.70;47.40;;;;;;5049570;28;20555;-74
2021/09/07 11:58:32;;;;;;;35.93;33.43;;;26.70;47.70;;;;;;5037850;28;20514;-75
2021/09/07 12:01:01;;;;;;;39.10;36.50;;;26.80;46.50;;;;;;5037998;28;20548;-74
2021/09/07 12:03:38;;;;;;;41.33;38.83;;;26.80;47.60;;;;;;5040442;28;20463;-74
2021/09/07 12:06:07;;;;;;;40.17;37.40;;;26.80;46.60;;;;;;5038691;28;20454;-74
2021/09/07 12:08:37;;;;;;;36.20;33.83;;;26.80;46.90;;;;;;5045573;28;20482;-74
2021/09/07 12:11:05;;;;;;;39.87;37.27;;;26.80;46.90;;;;;;5047761;28;20447;-72
2021/09/07 12:13:32;;;;;;;36.20;33.80;;;26.90;46.90;;;;;;5034569;28;20997;-72
2021/09/07 12:16:00;;;;;;;39.43;36.93;;;27.00;45.30;;;;;;5039674;28;20459;-73
2021/09/07 12:18:39;;;;;;;38.70;36.20;;;27.10;46.60;;;;;;5038072;28;20483;-72
2021/09/07 12:21:26;;;;;;;38.40;35.70;;;27.20;47.30;;;;;;5038970;28;20483;-72
2021/09/07 12:23:56;;;;;;;37.10;34.80;;;27.30;47.30;;;;;;5038112;28;20578;-72
2021/09/07 12:26:40;;;;;;;34.83;32.63;;;27.30;46.00;;;;;;5042449;28;20459;-71
2021/09/07 12:29:15;;;;;;;36.80;34.50;;;27.40;46.10;;;;;;5038723;28;21112;-74
2021/09/07 12:31:42;;;;;;;36.03;33.73;;;27.50;46.30;;;;;;5040417;28;20453;-74
2021/09/07 12:34:09;;;;;;;37.23;34.87;;;27.50;47.10;;;;;;5039502;28;20471;-74
2021/09/07 12:36:45;;;;;;;35.87;33.57;;;27.50;45.10;;;;;;5040904;28;21005;-74